createdAt,value
2022-11-29T00:00:54.644Z,100008.50
2022-11-29T00:06:05.722Z,100001.19
2022-11-29T00:11:10.345Z,100000.31
2022-11-29T00:16:13.251Z,99999.38
2022-11-29T00:21:17.486Z,99997.53
2022-11-29T00:26:20.422Z,99994.84
2022-11-29T00:31:25.359Z,100002.06
2022-11-29T00:36:29.656Z,99991.28
2022-11-29T00:41:33.007Z,99998.28
2022-11-29T00:46:35.829Z,99994.72
2022-11-29T00:51:39.943Z,100002.91
2022-11-29T00:56:42.852Z,99997.28
2022-11-29T01:01:45.691Z,99997.19
2022-11-29T01:06:51.530Z,99992.66
2022-11-29T01:11:54.287Z,99999.00
2022-11-29T01:16:57.120Z,99996.44
2022-11-29T01:22:01.445Z,99994.84
2022-11-29T01:27:04.228Z,99998.28
2022-11-29T01:32:06.998Z,100000.09
2022-11-29T01:37:11.150Z,99999.25
2022-11-29T01:42:14.583Z,100016.25
2022-11-29T01:47:18.635Z,100003.66
2022-11-29T01:52:27.052Z,100008.91
2022-11-29T01:57:31.387Z,100013.56
2022-11-29T02:02:38.257Z,100005.38
2022-11-29T02:07:45.135Z,100004.50
2022-11-29T02:13:01.301Z,100010.75
2022-11-29T02:18:14.558Z,100007.09
2022-11-29T02:23:41.764Z,100010.53
2022-11-29T02:29:16.306Z,100011.41
2022-11-29T02:34:51.885Z,100006.22
2022-11-29T02:40:36.363Z,100020.91
2022-11-29T02:45:57.816Z,100015.72
2022-11-29T02:51:10.847Z,100026.75
2022-11-29T02:56:26.367Z,100019.59
2022-11-29T03:01:35.700Z,100020.72
2022-11-29T03:06:49.292Z,100024.44
2022-11-29T03:12:04.059Z,100028.22
2022-11-29T03:17:17.760Z,100024.78
2022-11-29T03:22:30.968Z,100028.53
2022-11-29T03:27:39.505Z,100032.34
2022-11-29T03:32:53.311Z,100036.22
2022-11-29T03:38:04.849Z,100041.78
2022-11-29T03:43:15.133Z,100047.19
2022-11-29T03:48:22.906Z,100040.09
2022-11-29T03:53:34.723Z,100043.09
2022-11-29T03:58:51.282Z,100043.22
2022-11-29T04:04:07.183Z,100044.94
2022-11-29T04:09:29.150Z,100041.47
2022-11-29T04:14:43.817Z,100042.88
2022-11-29T04:20:25.956Z,100051.53
2022-11-29T04:25:49.099Z,100052.81
2022-11-29T04:31:00.792Z,100049.47
2022-11-29T04:36:33.975Z,100057.22
2022-11-29T04:41:52.686Z,100060.13
2022-11-29T04:47:29.931Z,100065.75
2022-11-29T04:52:47.076Z,100065.06
2022-11-29T04:57:58.785Z,100070.78
2022-11-29T05:03:11.969Z,100076.38
2022-11-29T05:08:26.166Z,100077.66
2022-11-29T05:13:38.778Z,100076.88
2022-11-29T05:19:10.106Z,100077.44
2022-11-29T05:24:29.139Z,100088.28
2022-11-29T05:29:39.464Z,100088.47
2022-11-29T05:34:56.217Z,100092.22
2022-11-29T05:40:28.198Z,100098.66
2022-11-29T05:45:37.327Z,100095.31
2022-11-29T05:50:46.698Z,100093.69
2022-11-29T05:56:03.581Z,100105.53
2022-11-29T06:01:19.124Z,100111.22
2022-11-29T06:06:31.249Z,100117.56
2022-11-29T06:11:38.250Z,100115.06
2022-11-29T06:17:09.904Z,100125.13
2022-11-29T06:22:32.979Z,100125.25
2022-11-29T06:27:52.801Z,100126.31
2022-11-29T06:33:04.957Z,100130.06
2022-11-29T06:38:18.083Z,100140.06
2022-11-29T06:43:21.513Z,100141.03
2022-11-29T06:48:27.379Z,100149.28
2022-11-29T06:53:44.876Z,100150.25
2022-11-29T06:58:59.979Z,100154.88
2022-11-29T07:04:34.232Z,100160.44
2022-11-29T07:09:38.845Z,100173.97
2022-11-29T07:14:42.663Z,100167.72
2022-11-29T07:19:58.222Z,100167.91
2022-11-29T07:25:11.046Z,100165.22
2022-11-29T07:30:18.025Z,100177.06
2022-11-29T07:35:28.062Z,100182.59
2022-11-29T07:40:41.774Z,100191.63
2022-11-29T07:45:45.732Z,100187.31
2022-11-29T07:50:48.634Z,100194.59
2022-11-29T07:55:53.061Z,100196.44
2022-11-29T08:00:56.018Z,100207.28
2022-11-29T08:05:58.808Z,100205.69
2022-11-29T08:11:03.019Z,100206.09
2022-11-29T08:16:06.286Z,100192.75
2022-11-29T08:21:09.451Z,100206.16
2022-11-29T08:26:14.247Z,100212.03
2022-11-29T08:31:17.034Z,100200.94
2022-11-29T08:36:21.059Z,100207.69
2022-11-29T08:41:25.310Z,100212.75
2022-11-29T08:46:48.051Z,100212.41
2022-11-29T08:52:13.425Z,100213.06
2022-11-29T08:57:39.199Z,100219.88
2022-11-29T09:02:40.611Z,100225.94
2022-11-29T09:07:43.870Z,100232.91
2022-11-29T09:12:49.541Z,100235.53
2022-11-29T09:17:52.482Z,100238.09
2022-11-29T09:22:55.369Z,100249.50
2022-11-29T09:28:01.865Z,100244.06
2022-11-29T09:33:05.067Z,100246.63
2022-11-29T09:38:08.014Z,100242.03
2022-11-29T09:43:22.381Z,100250.00
2022-11-29T09:48:38.077Z,100257.97
2022-11-29T09:53:55.320Z,100257.84
2022-11-29T09:59:02.635Z,100261.22
2022-11-29T10:04:11.983Z,100255.97
2022-11-29T10:09:19.487Z,100257.47
2022-11-29T10:14:27.838Z,100257.41
2022-11-29T10:19:34.174Z,100261.72
2022-11-29T10:24:39.376Z,100265.25
2022-11-29T10:29:43.835Z,100273.41
2022-11-29T10:34:47.079Z,100273.41
2022-11-29T10:39:54.025Z,100266.97
2022-11-29T10:45:00.018Z,100259.78
2022-11-29T10:50:03.545Z,100261.59
2022-11-29T10:55:10.898Z,100264.16
2022-11-29T11:00:16.438Z,100269.63
2022-11-29T11:05:27.495Z,100259.78
2022-11-29T11:10:31.138Z,100264.41
2022-11-29T11:15:35.609Z,100263.44
2022-11-29T11:20:43.755Z,100267.84
2022-11-29T11:25:49.946Z,100267.84
2022-11-29T11:30:56.984Z,100269.53
2022-11-29T11:36:14.389Z,100270.38
2022-11-29T11:41:21.950Z,100278.34
2022-11-29T11:46:47.944Z,100287.19
2022-11-29T11:51:51.634Z,100272.78
2022-11-29T11:56:54.983Z,100283.31
2022-11-29T12:01:59.273Z,100280.56
2022-11-29T12:07:04.330Z,100281.44
2022-11-29T12:12:14.787Z,100290.41
2022-11-29T12:17:31.981Z,100302.03
2022-11-29T12:22:47.927Z,100295.03
2022-11-29T12:27:51.915Z,100296.84
2022-11-29T12:33:07.396Z,100299.63
2022-11-29T12:38:25.947Z,100305.88
2022-11-29T12:43:39.847Z,100302.31
2022-11-29T12:48:55.373Z,100311.34
2022-11-29T12:54:20.011Z,100310.44
2022-11-29T12:59:37.772Z,100309.50
2022-11-29T13:04:55.026Z,100311.19
2022-11-29T13:10:36.338Z,100323.16
2022-11-29T13:15:44.293Z,100326.91
2022-11-29T13:20:55.908Z,100326.09
2022-11-29T13:26:01.335Z,100328.22
2022-11-29T13:31:08.896Z,100328.81
2022-11-29T13:36:19.549Z,100331.25
2022-11-29T13:41:31.395Z,100331.94
2022-11-29T13:46:41.981Z,100341.69
2022-11-29T13:51:46.986Z,100349.66
2022-11-29T13:56:49.811Z,100353.13
2022-11-29T14:01:54.877Z,100359.25
2022-11-29T14:07:12.224Z,100356.31
2022-11-29T14:12:35.778Z,100353.94
2022-11-29T14:17:51.461Z,100351.94
2022-11-29T14:23:17.624Z,100362.50
2022-11-29T14:28:33.764Z,100356.19
2022-11-29T14:33:45.914Z,100348.22
2022-11-29T14:39:00.076Z,100360.50
2022-11-29T14:44:19.071Z,100361.59
2022-11-29T14:49:25.461Z,100369.00
2022-11-29T14:54:30.873Z,100371.06
2022-11-29T14:59:51.224Z,100365.91
2022-11-29T15:04:56.929Z,100371.00
2022-11-29T15:10:04.336Z,100371.50
2022-11-29T15:15:25.113Z,100390.88
2022-11-29T15:20:46.904Z,100377.16
2022-11-29T15:25:54.210Z,100388.28
2022-11-29T15:31:04.948Z,100396.88
2022-11-29T15:36:10.004Z,100391.38
2022-11-29T15:41:28.590Z,100398.00
2022-11-29T15:46:33.949Z,100412.00
2022-11-29T15:51:39.699Z,100413.47
2022-11-29T15:56:46.834Z,100419.41
2022-11-29T16:01:54.676Z,100421.81
2022-11-29T16:06:58.716Z,100418.88
2022-11-29T16:12:03.833Z,100434.91
2022-11-29T16:17:06.951Z,100432.78
2022-11-29T16:22:16.811Z,100442.41
2022-11-29T16:27:22.344Z,100443.16
2022-11-29T16:32:28.810Z,100444.69
2022-11-29T16:37:40.616Z,100453.41
2022-11-29T16:43:06.698Z,100451.41
2022-11-29T16:48:30.366Z,100458.44
2022-11-29T16:53:35.573Z,100465.34
2022-11-29T16:59:25.498Z,100459.78
2022-11-29T17:04:03.282Z,100469.47
2022-11-29T17:09:06.391Z,100469.28
2022-11-29T17:14:10.855Z,100471.75
2022-11-29T17:19:14.328Z,100466.94
2022-11-29T17:24:19.380Z,100471.16
2022-11-29T17:29:23.677Z,100473.66
2022-11-29T17:34:26.478Z,100476.44
2022-11-29T17:39:29.200Z,100472.13
2022-11-29T17:44:34.368Z,100478.56
2022-11-29T17:49:37.247Z,100483.19
2022-11-29T17:54:40.233Z,100493.66
2022-11-29T17:59:44.522Z,100501.44
2022-11-29T18:04:47.497Z,100509.31
2022-11-29T18:09:50.868Z,100504.50
2022-11-29T18:14:54.994Z,100504.50
2022-11-29T18:19:57.850Z,100502.78
2022-11-29T18:25:30.128Z,100509.88
2022-11-29T18:30:25.007Z,100508.06
2022-11-29T18:35:28.070Z,100505.47
2022-11-29T18:40:30.844Z,100524.19
2022-11-29T18:45:37.251Z,100514.28
2022-11-29T18:50:40.203Z,100522.38
2022-11-29T18:55:43.033Z,100524.09
2022-11-29T19:00:47.188Z,100524.66
2022-11-29T19:05:55.000Z,100526.31
2022-11-29T19:10:57.777Z,100528.03
2022-11-29T19:16:03.188Z,100531.78
2022-11-29T19:21:06.533Z,100529.28
2022-11-29T19:26:11.089Z,100537.56
2022-11-29T19:31:16.898Z,100538.72
2022-11-29T19:36:21.501Z,100532.66
2022-11-29T19:41:27.035Z,100539.13
2022-11-29T19:46:33.512Z,100546.31
2022-11-29T19:51:37.130Z,100542.00
2022-11-29T19:56:40.511Z,100544.78
2022-11-29T20:01:44.915Z,100545.75
2022-11-29T20:06:47.909Z,100553.03
2022-11-29T20:11:50.889Z,100549.69
2022-11-29T20:16:55.033Z,100556.03
2022-11-29T20:21:57.841Z,100558.72
2022-11-29T20:27:00.589Z,100565.75
2022-11-29T20:32:04.840Z,100564.59
2022-11-29T20:37:24.006Z,100568.72
2022-11-29T20:42:53.759Z,100579.00
2022-11-29T20:48:03.829Z,100581.34
2022-11-29T20:53:23.430Z,100570.53
2022-11-29T20:58:26.514Z,100573.09
2022-11-29T21:03:31.521Z,100566.22
2022-11-29T21:08:35.003Z,100574.78
2022-11-29T21:13:38.670Z,100579.75
2022-11-29T21:18:43.505Z,100586.66
2022-11-29T21:23:57.840Z,100585.78
2022-11-29T21:29:16.492Z,100592.94
2022-11-29T21:34:20.906Z,100588.31
2022-11-29T21:39:27.286Z,100592.53
2022-11-29T21:44:30.034Z,100595.22
2022-11-29T21:49:34.303Z,100601.56
2022-11-29T21:54:37.204Z,100601.47
2022-11-29T21:59:40.613Z,100606.88
2022-11-29T22:04:45.309Z,100618.28
2022-11-29T22:09:49.817Z,100609.16
2022-11-29T22:14:52.580Z,100601.06
2022-11-29T22:19:56.856Z,100601.25
2022-11-29T22:24:59.634Z,100605.34
2022-11-29T22:30:02.443Z,100617.97
2022-11-29T22:35:06.838Z,100620.44
2022-11-29T22:40:10.024Z,100613.22
2022-11-29T22:45:12.811Z,100613.34
2022-11-29T22:50:17.442Z,100625.97
2022-11-29T22:55:20.280Z,100624.00
2022-11-29T23:00:23.253Z,100610.63
2022-11-29T23:05:32.413Z,100613.44
2022-11-29T23:10:35.434Z,100615.06
2022-11-29T23:15:38.233Z,100621.88
2022-11-29T23:20:42.449Z,100607.41
2022-11-29T23:25:49.800Z,100617.25
2022-11-29T23:30:54.277Z,100614.66
2022-11-29T23:36:03.397Z,100618.19
2022-11-29T23:41:06.640Z,100615.31
2022-11-29T23:46:11.699Z,100617.69
2022-11-29T23:51:17.367Z,100615.88
2022-11-29T23:56:21.880Z,100606.81
